Etusivu
METAR-TAF:

METAR-TAF

Lentoasemat :

Senoun kansainvälinen lentoasema

Bamako, Mali

Leveyspiiri: 12-32N, Pituuspiiri: 007-57W, korkeus merenpinnasta: 380 m

Tämänhetkinen sää

Tämä raportti tehtiin 21 minuuttia sitten, kello 14.00 UTC
Tuuli 8 kn idästä/koillisesta, vaihdellen pohjoisen/koillisen ja idän/kaakon välillä
Lämpötila 37°C
Kosteus 7%
Ilmanpaine 1013 hPa
Näkyvyys 10 km tai enemmän
ei pilviä alle 1500 m:ssä eikä cumulonimbus-pilviä

METAR: GABS 181400Z 07008KT 020V110 CAVOK 37/M05 Q1013 NOSIG

Aika: 14:21 (14:21 UTC)

Sääennuste

Tämä raportti tehtiin 2 tuntia ja 1 minuuttia sitten, kello 12.20 UTC
Ennuste voimassa 18. päivästä klo 13 UTC - 19. päivään klo 12 UTC
Tuuli 11 kn idästä
Näkyvyys 10 km tai enemmän
ei pilviä alle 1500 m:ssä eikä cumulonimbus-pilviä

TAF: GABS 181220Z 1813/1912 08011KT CAVOK

Säähavainnot ja -ennusteet yli 4000 lentoasemalta (METAR- ja TAF-raportit).

Käytössä olevat sääasemat on merkitty karttaan keltaisilla ja punaisilla pisteillä.

Aseta hiiri pisteen päälle nähdäksesi sääaseman nimen.

Klikkaa sitten nähdäksesi säähavainnot ja -ennusteet.

Kartan vaihtaminen: klikkaa mustalla rastilla varustettuja vihreitä pisteitä, niin voit zoomata sisään; viivalla varustettua vihreää pistettä, niin voit zoomata ulos tai vihreitä nuolia, niin pääset viereisille kartoille.


METAR-TAF: